createdAt,value
2019-04-23T00:00:23.562Z,5.27
2019-04-23T00:02:56.644Z,4.97
2019-04-23T00:05:43.300Z,5.07
2019-04-23T00:08:08.103Z,5.40
2019-04-23T00:10:53.875Z,4.93
2019-04-23T00:12:59.388Z,5.50
2019-04-23T00:15:43.862Z,5.47
2019-04-23T00:18:19.440Z,5.30
2019-04-23T00:20:44.276Z,5.50
2019-04-23T00:23:10.918Z,4.70
2019-04-23T00:25:51.080Z,5.57
2019-04-23T00:28:20.557Z,5.17
2019-04-23T00:30:51.566Z,5.17
2019-04-23T00:35:52.471Z,5.70
2019-04-23T00:38:26.555Z,5.40
2019-04-23T00:43:30.579Z,5.47
2019-04-23T00:45:56.439Z,5.70
2019-04-23T00:48:36.371Z,5.93
2019-04-23T00:51:13.810Z,5.83
2019-04-23T00:53:28.310Z,5.50
2019-04-23T00:56:20.621Z,5.53
2019-04-23T00:58:38.094Z,5.67
2019-04-23T01:01:04.396Z,5.90
2019-04-23T01:03:29.488Z,6.13
2019-04-23T01:06:18.192Z,5.70
2019-04-23T01:08:36.791Z,5.77
2019-04-23T01:11:13.469Z,5.77
2019-04-23T01:16:28.625Z,5.72
2019-04-23T01:21:03.473Z,6.33
2019-04-23T01:23:57.824Z,6.50
2019-04-23T01:26:48.527Z,6.03
2019-04-23T01:29:20.171Z,6.33
2019-04-23T01:31:51.742Z,6.17
2019-04-23T01:34:26.014Z,6.37
2019-04-23T01:36:54.181Z,6.40
2019-04-23T01:39:23.056Z,6.20
2019-04-23T01:42:07.947Z,6.77
2019-04-23T01:44:36.690Z,6.67
2019-04-23T01:47:01.254Z,7.10
2019-04-23T01:49:41.624Z,6.60
2019-04-23T01:52:00.343Z,6.97
2019-04-23T01:54:30.548Z,7.03
2019-04-23T01:57:04.057Z,7.60
2019-04-23T01:59:38.613Z,7.23
2019-04-23T02:02:14.068Z,6.63
2019-04-23T02:04:44.514Z,7.07
2019-04-23T02:07:21.809Z,7.20
2019-04-23T02:09:48.247Z,7.37
2019-04-23T02:12:22.322Z,7.00
2019-04-23T02:14:51.767Z,7.97
2019-04-23T02:17:24.763Z,7.30
2019-04-23T02:19:51.314Z,7.63
2019-04-23T02:22:31.700Z,7.60
2019-04-23T02:24:54.590Z,7.53
2019-04-23T02:27:29.989Z,7.73
2019-04-23T02:30:15.791Z,7.33
2019-04-23T02:32:39.848Z,7.30
2019-04-23T02:40:26.708Z,7.77
2019-04-23T02:45:09.456Z,8.07
2019-04-23T02:47:42.612Z,8.27
2019-04-23T02:50:34.622Z,7.93
2019-04-23T02:52:48.850Z,8.67
2019-04-23T02:55:18.081Z,8.57
2019-04-23T02:57:41.710Z,8.40
2019-04-23T03:02:47.861Z,8.43
2019-04-23T03:05:44.714Z,8.33
2019-04-23T03:07:59.931Z,9.17
2019-04-23T03:10:24.681Z,9.20
2019-04-23T03:18:33.277Z,9.10
2019-04-23T03:21:01.852Z,8.83
2019-04-23T03:23:31.888Z,8.25
2019-04-23T03:26:04.344Z,9.20
2019-04-23T03:28:39.660Z,9.20
2019-04-23T03:36:10.607Z,9.77
2019-04-23T03:41:15.825Z,9.93
2019-04-23T03:46:17.794Z,9.83
2019-04-23T03:51:09.629Z,9.50
2019-04-23T03:54:04.023Z,9.47
2019-04-23T03:58:44.892Z,8.90
2019-04-23T04:01:27.516Z,9.47
2019-04-23T04:04:12.850Z,9.70
2019-04-23T04:06:29.341Z,10.17
2019-04-23T04:09:17.476Z,10.00
2019-04-23T04:14:23.440Z,9.73
2019-04-23T04:16:42.660Z,10.03
2019-04-23T04:21:52.984Z,9.90
2019-04-23T04:24:21.748Z,10.10
2019-04-23T04:26:51.072Z,10.50
2019-04-23T04:29:29.963Z,10.00
2019-04-23T04:32:00.560Z,10.27
2019-04-23T04:34:43.800Z,10.50
2019-04-23T04:37:18.405Z,10.53
2019-04-23T04:44:38.251Z,10.30
2019-04-23T04:49:36.561Z,10.33
2019-04-23T04:57:12.731Z,10.27
2019-04-23T04:59:55.642Z,10.93
2019-04-23T05:02:09.681Z,10.23
2019-04-23T05:04:37.834Z,11.07
2019-04-23T05:09:56.923Z,10.30
2019-04-23T05:12:13.118Z,11.20
2019-04-23T05:14:45.328Z,10.07
2019-04-23T05:19:45.724Z,10.53
2019-04-23T05:22:16.598Z,11.07
2019-04-23T05:24:43.336Z,10.70
2019-04-23T05:27:12.340Z,10.40
2019-04-23T05:29:46.704Z,10.90
2019-04-23T05:32:12.076Z,10.73
2019-04-23T05:34:50.089Z,9.63
2019-04-23T05:37:25.815Z,10.00
2019-04-23T05:39:49.295Z,10.23
2019-04-23T05:42:19.363Z,10.40
2019-04-23T05:45:08.327Z,10.65
2019-04-23T05:49:55.080Z,10.40
2019-04-23T05:52:24.019Z,10.15
2019-04-23T05:55:01.548Z,10.68
2019-04-23T05:57:28.537Z,10.80
2019-04-23T06:00:02.421Z,11.10
2019-04-23T06:02:35.267Z,10.63
2019-04-23T06:05:04.212Z,10.50
2019-04-23T06:07:35.507Z,10.08
2019-04-23T06:10:06.371Z,11.08
2019-04-23T06:15:05.002Z,9.78
2019-04-23T06:17:53.931Z,10.55
2019-04-23T06:20:10.166Z,10.90
2019-04-23T06:22:45.504Z,10.35
2019-04-23T06:25:22.002Z,10.38
2019-04-23T06:27:45.979Z,11.00
2019-04-23T06:30:17.494Z,10.30
2019-04-23T06:32:44.435Z,10.25
2019-04-23T06:35:20.499Z,9.93
2019-04-23T06:38:22.029Z,10.82
2019-04-23T06:40:22.224Z,10.82
2019-04-23T06:43:13.560Z,10.05
2019-04-23T06:45:37.834Z,10.60
2019-04-23T06:48:20.326Z,10.93
2019-04-23T06:50:52.686Z,10.60
2019-04-23T06:53:18.460Z,10.32
2019-04-23T06:55:50.242Z,10.98
2019-04-23T06:58:30.684Z,9.95
2019-04-23T07:03:36.081Z,10.30
2019-04-23T07:06:17.216Z,11.00
2019-04-23T07:08:56.359Z,10.80
2019-04-23T07:11:16.771Z,10.43
2019-04-23T07:13:53.206Z,10.48
2019-04-23T07:16:11.378Z,10.65
2019-04-23T07:18:41.566Z,11.10
2019-04-23T07:21:17.818Z,10.00
2019-04-23T07:23:54.580Z,10.45
2019-04-23T07:28:59.227Z,10.03
2019-04-23T07:31:35.089Z,10.72
2019-04-23T07:36:28.883Z,10.70
2019-04-23T07:44:40.328Z,10.00
2019-04-23T07:47:11.531Z,10.70
2019-04-23T07:49:43.385Z,10.43
2019-04-23T07:52:10.662Z,10.13
2019-04-23T07:54:38.701Z,11.05
2019-04-23T07:59:44.007Z,10.55
2019-04-23T08:02:16.021Z,9.85
2019-04-23T08:04:44.691Z,10.05
2019-04-23T08:07:18.215Z,9.95
2019-04-23T08:09:47.750Z,9.40
2019-04-23T08:12:23.367Z,9.80
2019-04-23T08:14:46.931Z,9.55
2019-04-23T08:17:20.666Z,9.15
2019-04-23T08:25:10.986Z,9.63
2019-04-23T08:27:38.353Z,9.68
2019-04-23T08:30:03.344Z,8.75
2019-04-23T08:32:27.935Z,8.43
2019-04-23T08:35:10.841Z,8.58
2019-04-23T08:37:58.474Z,8.98
2019-04-23T08:40:08.185Z,9.03
2019-04-23T08:42:49.616Z,8.25
2019-04-23T08:45:28.578Z,8.95
2019-04-23T08:48:09.007Z,8.74
2019-04-23T08:53:18.299Z,8.43
2019-04-23T08:58:07.910Z,8.63
2019-04-23T09:00:55.326Z,8.30
2019-04-23T09:03:18.862Z,8.90
2019-04-23T09:15:49.802Z,8.33
2019-04-23T09:18:23.055Z,7.60
2019-04-23T09:20:53.025Z,7.65
2019-04-23T09:23:31.029Z,8.33
2019-04-23T09:25:54.360Z,7.55
2019-04-23T09:28:34.911Z,7.78
2019-04-23T09:31:24.698Z,8.00
2019-04-23T09:33:46.902Z,7.80
2019-04-23T09:36:25.573Z,7.28
2019-04-23T09:38:52.579Z,6.95
2019-04-23T09:44:39.849Z,7.60
2019-04-23T09:46:36.383Z,7.03
2019-04-23T09:49:15.253Z,7.42
2019-04-23T09:51:46.918Z,6.95
2019-04-23T09:59:28.591Z,6.40
2019-04-23T10:01:37.516Z,6.50
2019-04-23T10:04:04.082Z,6.42
2019-04-23T10:06:26.559Z,6.62
2019-04-23T10:08:57.839Z,6.85
2019-04-23T10:11:26.177Z,7.05
2019-04-23T10:13:56.625Z,8.10
2019-04-23T10:16:30.126Z,6.62
2019-04-23T10:18:59.341Z,7.10
2019-04-23T10:21:31.196Z,6.62
2019-04-23T10:24:01.401Z,5.95
2019-04-23T10:26:32.447Z,7.17
2019-04-23T10:29:05.415Z,6.85
2019-04-23T10:31:35.624Z,6.10
2019-04-23T10:34:06.393Z,6.80
2019-04-23T10:36:38.254Z,5.80
2019-04-23T10:39:17.104Z,6.70
2019-04-23T10:41:42.516Z,5.72
2019-04-23T10:44:17.234Z,6.50
2019-04-23T10:47:16.549Z,6.15
2019-04-23T10:54:54.219Z,6.15
2019-04-23T10:57:28.233Z,5.33
2019-04-23T10:59:53.448Z,5.75
2019-04-23T11:07:31.312Z,5.70
2019-04-23T11:12:42.081Z,5.37
2019-04-23T11:17:45.586Z,5.83
2019-04-23T11:20:26.116Z,6.00
2019-04-23T11:25:28.080Z,5.50
2019-04-23T11:27:59.748Z,5.10
2019-04-23T11:36:01.796Z,5.78
2019-04-23T11:38:35.237Z,4.92
2019-04-23T11:40:35.313Z,5.83
2019-04-23T11:43:14.329Z,5.42
2019-04-23T11:45:48.545Z,4.95
2019-04-23T11:48:32.924Z,5.40
2019-04-23T11:53:24.159Z,6.28
2019-04-23T11:58:23.658Z,5.22
2019-04-23T12:01:11.788Z,5.08
2019-04-23T12:03:54.041Z,5.50
2019-04-23T12:06:25.233Z,5.10
2019-04-23T12:08:58.908Z,5.53
2019-04-23T12:14:37.476Z,4.95
2019-04-23T12:19:52.416Z,4.95
2019-04-23T12:22:01.174Z,4.90
2019-04-23T12:24:58.853Z,4.92
2019-04-23T12:29:37.471Z,5.78
2019-04-23T12:37:40.677Z,5.03
2019-04-23T12:40:21.148Z,5.05
2019-04-23T12:45:25.992Z,4.90
2019-04-23T12:48:02.220Z,4.70
2019-04-23T12:53:00.638Z,4.87
2019-04-23T12:58:01.635Z,5.25
2019-04-23T13:00:48.123Z,4.78
2019-04-23T13:03:13.508Z,4.60
2019-04-23T13:05:33.885Z,4.78
2019-04-23T13:08:30.439Z,4.87
2019-04-23T13:13:24.274Z,4.03
2019-04-23T13:16:03.016Z,4.75
2019-04-23T13:18:17.293Z,4.90
2019-04-23T13:20:42.564Z,4.85
2019-04-23T13:23:23.721Z,4.67
2019-04-23T13:26:16.115Z,4.92
2019-04-23T13:29:02.855Z,3.80
2019-04-23T13:33:45.507Z,4.58
2019-04-23T13:36:24.340Z,4.58
2019-04-23T13:38:47.288Z,4.47
2019-04-23T13:41:20.409Z,4.70
2019-04-23T13:43:48.366Z,4.83
2019-04-23T13:46:23.067Z,4.67
2019-04-23T13:48:56.170Z,5.03
2019-04-23T13:51:39.968Z,4.42
2019-04-23T13:53:59.274Z,4.60
2019-04-23T13:56:56.048Z,4.80
2019-04-23T13:59:26.504Z,4.58
2019-04-23T14:01:42.994Z,4.47
2019-04-23T14:04:21.261Z,5.03
2019-04-23T14:06:51.453Z,5.05
2019-04-23T14:09:31.820Z,5.28
2019-04-23T14:11:46.718Z,4.72
2019-04-23T14:14:38.160Z,4.58
2019-04-23T14:17:04.526Z,4.30
2019-04-23T14:19:16.864Z,4.45
2019-04-23T14:22:09.744Z,4.92
2019-04-23T14:24:26.845Z,4.45
2019-04-23T14:27:03.858Z,4.80
2019-04-23T14:29:38.871Z,4.67
2019-04-23T14:32:10.400Z,4.80
2019-04-23T14:34:35.287Z,5.58
2019-04-23T14:37:06.228Z,4.37
2019-04-23T14:39:43.683Z,4.72
2019-04-23T14:42:21.435Z,4.17
2019-04-23T14:44:41.552Z,5.15
2019-04-23T14:47:24.286Z,4.47
2019-04-23T14:50:12.615Z,4.40
2019-04-23T14:52:27.508Z,4.45
2019-04-23T14:55:36.196Z,4.75
2019-04-23T14:57:35.268Z,4.50
2019-04-23T15:00:01.612Z,4.67
2019-04-23T15:05:03.675Z,4.22
2019-04-23T15:07:31.209Z,4.70
2019-04-23T15:10:08.499Z,4.80
2019-04-23T15:15:21.114Z,4.30
2019-04-23T15:17:34.180Z,4.92
2019-04-23T15:20:08.116Z,4.62
2019-04-23T15:22:54.498Z,4.72
2019-04-23T15:28:06.042Z,5.50
2019-04-23T15:30:03.759Z,4.87
2019-04-23T15:32:54.501Z,4.78
2019-04-23T15:35:26.231Z,4.33
2019-04-23T15:38:16.284Z,4.37
2019-04-23T15:42:58.451Z,4.72
2019-04-23T15:45:21.265Z,4.45
2019-04-23T15:47:58.802Z,4.28
2019-04-23T15:50:28.360Z,5.10
2019-04-23T15:52:58.839Z,5.25
2019-04-23T15:55:27.884Z,4.73
2019-04-23T15:58:09.930Z,5.08
2019-04-23T16:00:25.284Z,5.08
2019-04-23T16:02:34.210Z,4.78
2019-04-23T16:05:09.412Z,4.50
2019-04-23T16:07:54.688Z,4.67
2019-04-23T16:10:44.577Z,4.20
2019-04-23T16:13:13.297Z,4.75
2019-04-23T16:15:43.461Z,5.10
2019-04-23T16:18:23.613Z,5.30
2019-04-23T16:20:58.005Z,6.53
2019-04-23T16:23:21.424Z,5.65
2019-04-23T16:25:51.039Z,6.67
2019-04-23T16:28:38.461Z,6.62
2019-04-23T16:31:00.840Z,6.72
2019-04-23T16:33:16.287Z,6.28
2019-04-23T16:36:05.282Z,6.50
2019-04-23T16:41:13.776Z,6.45
2019-04-23T16:43:33.976Z,6.40
2019-04-23T16:46:07.235Z,6.50
2019-04-23T16:51:18.132Z,7.05
2019-04-23T16:53:54.161Z,6.53
2019-04-23T16:58:53.948Z,6.53
2019-04-23T17:01:21.355Z,6.65
2019-04-23T17:03:52.598Z,7.10
2019-04-23T17:06:15.907Z,6.30
2019-04-23T17:09:01.747Z,6.62
2019-04-23T17:11:20.514Z,6.17
2019-04-23T17:13:54.318Z,6.15
2019-04-23T17:16:21.876Z,7.15
2019-04-23T17:18:53.828Z,6.72
2019-04-23T17:21:23.824Z,6.30
2019-04-23T17:24:08.060Z,6.87
2019-04-23T17:26:30.645Z,6.72
2019-04-23T17:29:12.261Z,6.55
2019-04-23T17:31:35.161Z,6.53
2019-04-23T17:34:12.617Z,7.25
2019-04-23T17:36:39.940Z,6.17
2019-04-23T17:39:14.584Z,7.25
2019-04-23T17:42:00.132Z,6.62
2019-04-23T17:46:50.545Z,6.90
2019-04-23T17:49:33.714Z,6.78
2019-04-23T17:54:26.944Z,7.20
2019-04-23T17:57:01.398Z,6.60
2019-04-23T17:59:28.212Z,6.85
2019-04-23T18:02:27.237Z,7.17
2019-04-23T18:04:34.763Z,7.33
2019-04-23T18:07:06.175Z,6.78
2019-04-23T18:09:39.739Z,7.62
2019-04-23T18:12:12.973Z,7.10
2019-04-23T18:14:36.806Z,7.50
2019-04-23T18:17:13.184Z,7.40
2019-04-23T18:19:37.631Z,7.12
2019-04-23T18:22:24.614Z,7.13
2019-04-23T18:25:14.085Z,7.37
2019-04-23T18:30:25.965Z,6.60
2019-04-23T18:33:41.826Z,6.90
2019-04-23T18:35:35.712Z,7.42
2019-04-23T18:41:01.249Z,6.87
2019-04-23T18:43:29.547Z,7.33
2019-04-23T18:51:10.491Z,6.97
2019-04-23T18:58:58.206Z,8.50
2019-04-23T19:01:25.360Z,8.18
2019-04-23T19:09:10.425Z,8.73
2019-04-23T19:12:09.191Z,8.03
2019-04-23T19:17:37.186Z,7.85
2019-04-23T19:19:41.946Z,8.90
2019-04-23T19:27:26.617Z,8.75
2019-04-23T19:29:43.867Z,8.95
2019-04-23T19:32:28.111Z,9.20
2019-04-23T19:34:43.922Z,8.93
2019-04-23T19:37:17.143Z,8.68
2019-04-23T19:39:43.209Z,9.13
2019-04-23T19:42:15.571Z,8.13
2019-04-23T19:44:47.595Z,8.78
2019-04-23T19:47:33.250Z,8.15
2019-04-23T19:49:48.441Z,8.58
2019-04-23T19:52:36.586Z,7.97
2019-04-23T19:55:00.048Z,8.73
2019-04-23T19:57:36.922Z,8.50
2019-04-23T20:02:55.333Z,8.90
2019-04-23T20:04:59.481Z,8.73
2019-04-23T20:10:08.346Z,9.58
2019-04-23T20:12:40.724Z,9.38
2019-04-23T20:15:07.540Z,9.43
2019-04-23T20:17:54.573Z,9.93
2019-04-23T20:20:19.649Z,9.70
2019-04-23T20:22:52.023Z,10.03
2019-04-23T20:28:01.961Z,9.63
2019-04-23T20:30:57.592Z,9.23
2019-04-23T20:33:51.262Z,10.15
2019-04-23T20:35:52.412Z,9.17
2019-04-23T20:43:14.796Z,10.10
2019-04-23T20:45:54.582Z,10.10
2019-04-23T20:48:28.539Z,10.15
2019-04-23T20:50:50.792Z,10.28
2019-04-23T20:53:28.364Z,9.58
2019-04-23T20:58:31.323Z,10.28
2019-04-23T21:01:18.861Z,10.08
2019-04-23T21:03:51.916Z,9.93
2019-04-23T21:09:24.548Z,9.98
2019-04-23T21:11:12.493Z,10.88
2019-04-23T21:16:21.124Z,10.35
2019-04-23T21:18:55.139Z,11.40
2019-04-23T21:21:28.113Z,11.50
2019-04-23T21:23:53.727Z,11.22
2019-04-23T21:26:31.274Z,10.60
2019-04-23T21:29:15.333Z,11.97
2019-04-23T21:31:31.479Z,11.20
2019-04-23T21:34:07.853Z,11.63
2019-04-23T21:36:35.507Z,11.20
2019-04-23T21:39:38.585Z,11.22
2019-04-23T21:42:01.941Z,10.80
2019-04-23T21:44:26.986Z,11.97
2019-04-23T21:47:01.221Z,11.30
2019-04-23T21:49:41.220Z,11.95
2019-04-23T21:51:57.598Z,11.97
2019-04-23T21:54:35.315Z,12.33
2019-04-23T21:56:58.714Z,11.85
2019-04-23T21:59:34.157Z,11.83
2019-04-23T22:02:05.306Z,11.97
2019-04-23T22:04:41.491Z,12.78
2019-04-23T22:07:29.359Z,12.33
2019-04-23T22:12:13.567Z,12.63
2019-04-23T22:14:45.691Z,13.08
2019-04-23T22:19:49.919Z,12.58
2019-04-23T22:22:10.868Z,12.97
2019-04-23T22:24:48.784Z,13.07
2019-04-23T22:27:32.641Z,13.18
2019-04-23T22:32:25.927Z,13.18
2019-04-23T22:34:57.246Z,13.33
2019-04-23T22:37:23.508Z,13.13
2019-04-23T22:39:58.982Z,14.47
2019-04-23T22:42:44.816Z,13.33
2019-04-23T22:47:33.864Z,13.17
2019-04-23T22:50:06.289Z,13.60
2019-04-23T22:52:31.438Z,13.57
2019-04-23T22:57:56.710Z,15.03
2019-04-23T23:03:03.720Z,13.75
2019-04-23T23:08:20.355Z,13.80
2019-04-23T23:10:51.911Z,14.18
2019-04-23T23:13:22.631Z,13.23
2019-04-23T23:15:54.585Z,13.80
2019-04-23T23:23:21.552Z,14.00
2019-04-23T23:26:04.330Z,14.73
2019-04-23T23:28:31.580Z,14.40
2019-04-23T23:33:36.217Z,14.17
2019-04-23T23:36:05.876Z,15.15
2019-04-23T23:43:41.783Z,14.20
2019-04-23T23:48:35.754Z,14.45
2019-04-23T23:53:51.670Z,14.87
2019-04-23T23:59:03.689Z,13.63
